createdAt,value
2018-01-05T00:00:56.850Z,0.00
2018-01-05T00:01:56.673Z,0.00
2018-01-05T00:03:49.938Z,0.00
2018-01-05T00:04:49.847Z,0.00
2018-01-05T00:06:43.124Z,0.00
2018-01-05T00:07:43.035Z,0.00
2018-01-05T00:09:36.391Z,0.00
2018-01-05T00:10:36.320Z,0.00
2018-01-05T00:12:29.706Z,0.00
2018-01-05T00:13:29.505Z,0.00
2018-01-05T00:15:22.769Z,0.00
2018-01-05T00:16:22.703Z,0.00
2018-01-05T00:18:15.968Z,0.00
2018-01-05T00:19:15.883Z,0.00
2018-01-05T00:21:09.136Z,0.00
2018-01-05T00:22:09.068Z,0.00
2018-01-05T00:24:02.458Z,0.00
2018-01-05T00:25:02.312Z,0.00
2018-01-05T00:26:55.590Z,0.00
2018-01-05T00:27:55.502Z,0.00
2018-01-05T00:29:49.749Z,0.00
2018-01-05T00:30:49.678Z,0.00
2018-01-05T00:32:42.955Z,0.00
2018-01-05T00:33:42.866Z,0.00
2018-01-05T00:35:36.234Z,0.00
2018-01-05T00:36:36.066Z,0.00
2018-01-05T00:38:29.401Z,0.00
2018-01-05T00:39:29.318Z,0.00
2018-01-05T00:41:23.568Z,0.00
2018-01-05T00:42:23.501Z,0.00
2018-01-05T00:44:16.802Z,0.00
2018-01-05T00:45:16.686Z,0.00
2018-01-05T00:47:09.962Z,0.00
2018-01-05T00:48:09.872Z,0.00
2018-01-05T00:50:03.124Z,0.00
2018-01-05T00:51:03.052Z,0.00
2018-01-05T00:52:56.320Z,0.00
2018-01-05T00:53:56.229Z,0.00
2018-01-05T00:55:49.490Z,0.00
2018-01-05T00:56:49.418Z,0.00
2018-01-05T00:58:42.697Z,0.00
2018-01-05T00:59:42.602Z,0.00
2018-01-05T01:01:35.862Z,0.00
2018-01-05T01:02:35.794Z,0.00
2018-01-05T01:04:29.077Z,0.00
2018-01-05T01:05:28.984Z,0.00
2018-01-05T01:07:23.261Z,0.00
2018-01-05T01:08:23.176Z,0.00
2018-01-05T01:10:16.419Z,0.00
2018-01-05T01:11:16.349Z,0.00
2018-01-05T01:13:09.632Z,0.00
2018-01-05T01:14:09.544Z,0.00
2018-01-05T01:16:02.800Z,0.00
2018-01-05T01:17:02.749Z,0.00
2018-01-05T01:18:56.001Z,0.00
2018-01-05T01:19:55.909Z,0.00
2018-01-05T01:21:49.276Z,0.00
2018-01-05T01:22:49.098Z,0.00
2018-01-05T01:24:42.372Z,0.00
2018-01-05T01:25:42.287Z,0.00
2018-01-05T01:27:35.563Z,0.00
2018-01-05T01:28:35.477Z,0.00
2018-01-05T01:30:28.737Z,0.00
2018-01-05T01:31:28.665Z,0.00
2018-01-05T01:33:21.944Z,0.00
2018-01-05T01:34:21.851Z,0.00
2018-01-05T01:36:15.107Z,0.00
2018-01-05T01:37:15.039Z,0.00
2018-01-05T01:39:08.317Z,0.00
2018-01-05T01:40:08.227Z,0.00
2018-01-05T01:42:01.484Z,0.00
2018-01-05T01:43:01.416Z,0.00
2018-01-05T01:44:54.692Z,0.00
2018-01-05T01:45:54.606Z,0.00
2018-01-05T01:47:47.880Z,0.00
2018-01-05T01:48:47.795Z,0.00
2018-01-05T01:50:41.051Z,0.00
2018-01-05T01:51:40.981Z,0.00
2018-01-05T01:53:34.270Z,0.00
2018-01-05T01:54:34.181Z,0.00
2018-01-05T01:56:27.439Z,0.00
2018-01-05T01:57:27.367Z,0.00
2018-01-05T01:59:20.754Z,0.00
2018-01-05T02:00:20.546Z,0.00
2018-01-05T02:02:13.802Z,0.00
2018-01-05T02:03:13.733Z,0.00
2018-01-05T02:05:07.012Z,0.00
2018-01-05T02:06:06.922Z,0.00
2018-01-05T02:08:01.303Z,0.00
2018-01-05T02:09:01.110Z,0.00
2018-01-05T02:10:54.366Z,0.00
2018-01-05T02:11:54.299Z,0.00
2018-01-05T02:13:47.563Z,0.00
2018-01-05T02:14:47.473Z,0.00
2018-01-05T02:16:40.734Z,0.00
2018-01-05T02:17:40.661Z,0.00
2018-01-05T02:19:33.943Z,0.00
2018-01-05T02:20:33.852Z,0.00
2018-01-05T02:22:27.108Z,0.00
2018-01-05T02:23:27.040Z,0.00
2018-01-05T02:25:20.312Z,0.00
2018-01-05T02:26:20.229Z,0.00
2018-01-05T02:28:13.496Z,0.00
2018-01-05T02:29:13.400Z,0.00
2018-01-05T02:31:06.663Z,0.00
2018-01-05T02:32:06.590Z,0.00
2018-01-05T02:33:59.864Z,0.00
2018-01-05T02:34:59.776Z,0.00
2018-01-05T02:36:53.035Z,0.00
2018-01-05T02:37:52.964Z,0.00
2018-01-05T02:39:46.234Z,0.00
2018-01-05T02:40:46.142Z,0.00
2018-01-05T02:42:39.400Z,0.00
2018-01-05T02:43:39.330Z,0.00
2018-01-05T02:45:32.718Z,0.00
2018-01-05T02:46:32.520Z,0.00
2018-01-05T02:48:25.798Z,0.00
2018-01-05T02:49:25.706Z,0.00
2018-01-05T02:51:18.970Z,0.00
2018-01-05T02:52:18.901Z,0.00
2018-01-05T02:54:12.174Z,0.00
2018-01-05T02:55:12.086Z,0.00
2018-01-05T02:57:05.453Z,0.00
2018-01-05T02:58:05.316Z,0.00
2018-01-05T02:59:58.582Z,0.00
2018-01-05T03:00:58.493Z,0.00
2018-01-05T03:02:51.750Z,0.00
2018-01-05T03:03:51.682Z,0.00
2018-01-05T03:05:44.958Z,0.00
2018-01-05T03:06:44.870Z,0.00
2018-01-05T03:08:39.136Z,0.00
2018-01-05T03:09:39.046Z,0.00
2018-01-05T03:11:32.294Z,0.00
2018-01-05T03:12:32.221Z,0.00
2018-01-05T03:14:25.502Z,0.00
2018-01-05T03:15:25.410Z,0.00
2018-01-05T03:17:18.666Z,0.00
2018-01-05T03:18:18.599Z,0.00
2018-01-05T03:20:11.985Z,0.00
2018-01-05T03:21:11.780Z,0.00
2018-01-05T03:23:05.034Z,0.00
2018-01-05T03:24:04.964Z,0.00
2018-01-05T03:25:58.241Z,0.00
2018-01-05T03:26:58.155Z,0.00
2018-01-05T03:28:51.428Z,0.00
2018-01-05T03:29:51.345Z,0.00
2018-01-05T03:31:44.601Z,0.00
2018-01-05T03:32:44.530Z,0.00
2018-01-05T03:34:37.808Z,0.00
2018-01-05T03:35:37.718Z,0.00
2018-01-05T03:37:30.979Z,0.00
2018-01-05T03:38:30.912Z,0.00
2018-01-05T03:40:24.296Z,0.00
2018-01-05T03:41:24.103Z,0.00
2018-01-05T03:43:17.385Z,0.00
2018-01-05T03:44:17.314Z,0.00
2018-01-05T03:46:10.700Z,0.00
2018-01-05T03:47:10.503Z,0.00
2018-01-05T03:49:03.889Z,0.00
2018-01-05T03:50:03.691Z,0.00
2018-01-05T03:51:56.952Z,0.00
2018-01-05T03:52:56.879Z,0.00
2018-01-05T03:54:50.157Z,0.00
2018-01-05T03:55:50.065Z,0.00
2018-01-05T03:57:43.391Z,0.00
2018-01-05T03:58:43.324Z,0.00
2018-01-05T04:00:36.599Z,0.00
2018-01-05T04:01:36.511Z,0.00
2018-01-05T04:03:29.768Z,0.00
2018-01-05T04:04:29.699Z,0.00
2018-01-05T04:06:22.981Z,0.00
2018-01-05T04:07:22.891Z,0.00
2018-01-05T04:09:16.166Z,0.00
2018-01-05T04:10:16.082Z,0.00
2018-01-05T04:12:09.389Z,0.00
2018-01-05T04:13:09.318Z,0.00
2018-01-05T04:15:02.598Z,0.00
2018-01-05T04:16:02.508Z,0.00
2018-01-05T04:17:55.769Z,0.00
2018-01-05T04:18:55.696Z,0.00
2018-01-05T04:20:49.082Z,0.00
2018-01-05T04:21:48.901Z,0.00
2018-01-05T04:23:42.159Z,0.00
2018-01-05T04:24:42.091Z,0.00
2018-01-05T04:26:36.476Z,0.00
2018-01-05T04:27:36.282Z,0.00
2018-01-05T04:29:29.548Z,0.00
2018-01-05T04:30:29.461Z,0.00
2018-01-05T04:32:22.719Z,0.00
2018-01-05T04:33:22.649Z,0.00
2018-01-05T04:35:16.032Z,0.00
2018-01-05T04:36:15.835Z,0.00
2018-01-05T04:38:09.092Z,0.00
2018-01-05T04:39:09.031Z,0.00
2018-01-05T04:41:02.403Z,0.00
2018-01-05T04:42:02.317Z,0.00
2018-01-05T04:43:55.578Z,0.00
2018-01-05T04:44:55.509Z,0.00
2018-01-05T04:46:48.786Z,0.00
2018-01-05T04:47:48.700Z,0.00
2018-01-05T04:49:41.964Z,0.00
2018-01-05T04:50:41.876Z,0.00
2018-01-05T04:52:35.137Z,0.00
2018-01-05T04:53:35.071Z,0.00
2018-01-05T04:55:28.452Z,0.00
2018-01-05T04:56:28.314Z,0.00
2018-01-05T04:58:22.570Z,0.00
2018-01-05T04:59:22.502Z,0.00
2018-01-05T05:01:15.780Z,0.00
2018-01-05T05:02:15.695Z,0.00
2018-01-05T05:04:08.954Z,0.00
2018-01-05T05:05:08.886Z,0.00
2018-01-05T05:07:02.161Z,0.00
2018-01-05T05:08:02.071Z,0.00
2018-01-05T05:09:55.343Z,0.00
2018-01-05T05:10:55.257Z,0.00
2018-01-05T05:12:48.516Z,0.00
2018-01-05T05:13:48.445Z,0.00
2018-01-05T05:15:41.831Z,0.00
2018-01-05T05:16:41.633Z,0.00
2018-01-05T05:18:34.890Z,0.00
2018-01-05T05:19:34.820Z,0.00
2018-01-05T05:21:28.206Z,0.00
2018-01-05T05:22:28.014Z,0.00
2018-01-05T05:24:21.272Z,0.00
2018-01-05T05:25:21.204Z,0.00
2018-01-05T05:27:14.478Z,0.00
2018-01-05T05:28:14.395Z,0.00
2018-01-05T05:30:07.655Z,0.00
2018-01-05T05:31:07.573Z,0.00
2018-01-05T05:33:00.829Z,0.00
2018-01-05T05:34:00.761Z,0.00
2018-01-05T05:35:54.149Z,0.00
2018-01-05T05:36:53.950Z,0.00
2018-01-05T05:38:47.219Z,0.00
2018-01-05T05:39:47.134Z,0.00
2018-01-05T05:41:40.415Z,0.00
2018-01-05T05:42:40.323Z,0.00
2018-01-05T05:44:33.582Z,0.00
2018-01-05T05:45:33.510Z,0.00
2018-01-05T05:47:26.790Z,0.00
2018-01-05T05:48:26.700Z,0.00
2018-01-05T05:50:20.086Z,0.00
2018-01-05T05:51:19.885Z,0.00
2018-01-05T05:53:13.146Z,0.00
2018-01-05T05:54:13.075Z,0.00
2018-01-05T05:56:06.349Z,0.00
2018-01-05T05:57:06.262Z,0.00
2018-01-05T05:58:59.532Z,0.00
2018-01-05T05:59:59.449Z,0.00
2018-01-05T06:01:52.727Z,0.00
2018-01-05T06:02:52.639Z,0.00
2018-01-05T06:04:45.896Z,0.00
2018-01-05T06:05:45.823Z,0.00
2018-01-05T06:07:39.099Z,0.00
2018-01-05T06:08:39.012Z,0.00
2018-01-05T06:10:32.289Z,0.00
2018-01-05T06:11:32.197Z,0.00
2018-01-05T06:13:25.462Z,0.00
2018-01-05T06:14:25.385Z,0.00
2018-01-05T06:16:18.771Z,0.00
2018-01-05T06:17:18.572Z,0.00
2018-01-05T06:19:11.831Z,0.00
2018-01-05T06:20:11.761Z,0.00
2018-01-05T06:22:05.040Z,0.00
2018-01-05T06:23:04.961Z,0.00
2018-01-05T06:24:58.210Z,0.00
2018-01-05T06:25:58.136Z,0.00
2018-01-05T06:27:51.524Z,0.00
2018-01-05T06:28:51.329Z,0.00
2018-01-05T06:30:44.600Z,0.00
2018-01-05T06:31:44.510Z,0.00
2018-01-05T06:33:37.769Z,0.00
2018-01-05T06:34:37.700Z,0.00
2018-01-05T06:36:31.084Z,0.00
2018-01-05T06:37:30.885Z,0.00
2018-01-05T06:39:24.254Z,0.00
2018-01-05T06:40:24.076Z,0.00
2018-01-05T06:42:17.401Z,0.00
2018-01-05T06:43:17.312Z,0.00
2018-01-05T06:45:10.676Z,0.00
2018-01-05T06:46:10.498Z,0.00
2018-01-05T06:48:04.773Z,0.00
2018-01-05T06:49:04.687Z,0.00
2018-01-05T06:50:58.050Z,0.00
2018-01-05T06:51:57.874Z,0.00
2018-01-05T06:53:51.154Z,0.00
2018-01-05T06:54:51.062Z,0.00
2018-01-05T06:56:44.321Z,0.00
2018-01-05T06:57:44.251Z,0.00
2018-01-05T06:59:37.520Z,0.00
2018-01-05T07:00:37.431Z,0.00
2018-01-05T07:02:30.688Z,0.00
2018-01-05T07:03:30.620Z,0.00
2018-01-05T07:05:25.005Z,0.00
2018-01-05T07:06:24.811Z,0.00
2018-01-05T07:08:18.092Z,0.00
2018-01-05T07:09:18.000Z,0.00
2018-01-05T07:11:11.256Z,4.00
2018-01-05T07:12:11.190Z,4.00
2018-01-05T07:14:04.464Z,0.00
2018-01-05T07:15:04.375Z,4.00
2018-01-05T07:16:58.483Z,4.00
2018-01-05T07:17:58.412Z,4.00
2018-01-05T07:19:51.682Z,8.00
2018-01-05T07:20:51.591Z,8.00
2018-01-05T07:22:44.848Z,8.00
2018-01-05T07:23:44.778Z,12.00
2018-01-05T07:25:38.165Z,16.00
2018-01-05T07:26:37.967Z,16.00
2018-01-05T07:28:31.226Z,24.00
2018-01-05T07:29:31.167Z,28.00
2018-01-05T07:31:24.433Z,28.00
2018-01-05T07:32:24.344Z,28.00
2018-01-05T07:34:17.599Z,28.00
2018-01-05T07:35:17.534Z,36.00
2018-01-05T07:37:10.805Z,36.00
2018-01-05T07:38:10.716Z,44.00
2018-01-05T07:40:04.015Z,56.00
2018-01-05T07:41:03.911Z,68.00
2018-01-05T07:42:57.168Z,92.00
2018-01-05T07:43:57.098Z,84.00
2018-01-05T07:45:50.492Z,84.00
2018-01-05T07:46:50.288Z,76.00
2018-01-05T07:48:43.548Z,112.00
2018-01-05T07:49:43.476Z,100.00
2018-01-05T07:51:36.862Z,108.00
2018-01-05T07:52:36.667Z,124.00
2018-01-05T07:54:30.029Z,116.00
2018-01-05T07:55:29.851Z,140.00
2018-01-05T07:57:23.126Z,196.00
2018-01-05T07:58:23.036Z,240.00
2018-01-05T08:00:16.288Z,264.00
2018-01-05T08:01:16.218Z,332.00
2018-01-05T08:03:09.605Z,268.00
2018-01-05T08:04:09.402Z,264.00
2018-01-05T08:06:02.661Z,280.00
2018-01-05T08:07:02.588Z,264.00
2018-01-05T08:08:55.869Z,300.00
2018-01-05T08:09:55.773Z,304.00
2018-01-05T08:11:49.059Z,340.00
2018-01-05T08:12:48.964Z,324.00
2018-01-05T08:14:42.328Z,324.00
2018-01-05T08:15:42.148Z,376.00
2018-01-05T08:17:35.429Z,320.00
2018-01-05T08:18:35.334Z,296.00
2018-01-05T08:20:28.593Z,308.00
2018-01-05T08:21:28.521Z,344.00
2018-01-05T08:23:21.800Z,456.00
2018-01-05T08:24:21.707Z,476.00
2018-01-05T08:26:14.964Z,584.00
2018-01-05T08:27:14.893Z,596.00
2018-01-05T08:29:08.275Z,644.00
2018-01-05T08:30:08.078Z,660.00
2018-01-05T08:32:01.384Z,724.00
2018-01-05T08:33:01.313Z,672.00
2018-01-05T08:34:54.591Z,652.00
2018-01-05T08:35:54.499Z,728.00
2018-01-05T08:37:47.872Z,812.00
2018-01-05T08:38:47.687Z,892.00
2018-01-05T08:40:40.963Z,1204.00
2018-01-05T08:41:40.872Z,1276.00
2018-01-05T08:43:34.132Z,1252.00
2018-01-05T08:44:34.065Z,1328.00
2018-01-05T08:46:27.405Z,1312.00
2018-01-05T08:47:27.358Z,1408.00
2018-01-05T08:49:20.591Z,1212.00
2018-01-05T08:50:20.500Z,1228.00
2018-01-05T08:52:13.764Z,1284.00
2018-01-05T08:53:13.689Z,1340.00
2018-01-05T08:55:06.966Z,1380.00
2018-01-05T08:56:06.874Z,1404.00
2018-01-05T08:58:00.132Z,1452.00
2018-01-05T08:59:00.066Z,1496.00
2018-01-05T09:00:53.338Z,1604.00
2018-01-05T09:01:53.249Z,1656.00
2018-01-05T09:03:46.616Z,1752.00
2018-01-05T09:04:46.436Z,1748.00
2018-01-05T09:06:39.713Z,1584.00
2018-01-05T09:07:39.624Z,1572.00
2018-01-05T09:09:32.895Z,1700.00
2018-01-05T09:10:32.814Z,1760.00
2018-01-05T09:12:26.088Z,1912.00
2018-01-05T09:13:25.999Z,1992.00
2018-01-05T09:15:19.271Z,2208.00
2018-01-05T09:16:19.188Z,2216.00
2018-01-05T09:18:12.570Z,2144.00
2018-01-05T09:19:12.373Z,1976.00
2018-01-05T09:21:05.745Z,1852.00
2018-01-05T09:22:05.560Z,1892.00
2018-01-05T09:23:58.836Z,1684.00
2018-01-05T09:24:58.749Z,1560.00
2018-01-05T09:26:52.006Z,1572.00
2018-01-05T09:27:51.937Z,1524.00
2018-01-05T09:29:45.211Z,1444.00
2018-01-05T09:30:45.123Z,1552.00
2018-01-05T09:32:38.510Z,1836.00
2018-01-05T09:33:38.317Z,1912.00
2018-01-05T09:35:31.683Z,1968.00
2018-01-05T09:36:31.508Z,1532.00
2018-01-05T09:38:24.781Z,1492.00
2018-01-05T09:39:24.697Z,1252.00
2018-01-05T09:41:18.062Z,1184.00
2018-01-05T09:42:17.888Z,1328.00
2018-01-05T09:44:11.274Z,1024.00
2018-01-05T09:45:11.076Z,1208.00
2018-01-05T09:47:04.385Z,1712.00
2018-01-05T09:48:04.315Z,1836.00
2018-01-05T09:49:57.585Z,1556.00
2018-01-05T09:50:57.491Z,1360.00
2018-01-05T09:52:51.880Z,1444.00
2018-01-05T09:53:51.731Z,1440.00
2018-01-05T09:55:45.991Z,976.00
2018-01-05T09:56:45.922Z,1044.00
2018-01-05T09:58:39.196Z,1256.00
2018-01-05T09:59:39.111Z,1272.00
2018-01-05T10:01:32.367Z,1512.00
2018-01-05T10:02:32.299Z,1404.00
2018-01-05T10:04:25.582Z,992.00
2018-01-05T10:05:25.489Z,1024.00
2018-01-05T10:07:18.769Z,976.00
2018-01-05T10:08:18.680Z,1224.00
2018-01-05T10:10:11.960Z,1392.00
2018-01-05T10:11:11.871Z,1624.00
2018-01-05T10:13:05.148Z,1724.00
2018-01-05T10:14:05.063Z,1892.00
2018-01-05T10:15:58.929Z,1368.00
2018-01-05T10:16:58.316Z,1280.00
2018-01-05T10:18:51.700Z,1456.00
2018-01-05T10:19:51.505Z,1556.00
2018-01-05T10:21:44.803Z,1936.00
2018-01-05T10:22:44.694Z,1784.00
2018-01-05T10:24:37.977Z,1828.00
2018-01-05T10:25:37.885Z,1984.00
2018-01-05T10:27:31.174Z,1204.00
2018-01-05T10:28:31.075Z,1396.00
2018-01-05T10:30:24.445Z,1580.00
2018-01-05T10:31:24.315Z,1508.00
2018-01-05T10:33:17.594Z,1968.00
2018-01-05T10:34:17.505Z,2012.00
2018-01-05T10:36:10.763Z,1596.00
2018-01-05T10:37:10.695Z,1708.00
2018-01-05T10:39:03.972Z,1872.00
2018-01-05T10:40:03.888Z,1836.00
2018-01-05T10:41:57.252Z,2012.00
2018-01-05T10:42:57.074Z,2152.00
2018-01-05T10:44:50.470Z,2252.00
2018-01-05T10:45:50.310Z,2500.00
2018-01-05T10:47:43.787Z,2152.00
2018-01-05T10:48:43.512Z,2244.00
2018-01-05T10:50:36.788Z,2676.00
2018-01-05T10:51:36.701Z,2904.00
2018-01-05T10:53:29.972Z,2512.00
2018-01-05T10:54:29.895Z,2320.00
2018-01-05T10:56:23.263Z,2304.00
2018-01-05T10:57:23.107Z,2596.00
2018-01-05T10:59:16.405Z,3332.00
2018-01-05T11:00:16.316Z,3444.00
2018-01-05T11:02:09.575Z,3600.00
2018-01-05T11:03:09.507Z,3044.00
2018-01-05T11:05:02.786Z,2844.00
2018-01-05T11:06:02.696Z,3060.00
2018-01-05T11:07:56.110Z,3244.00
2018-01-05T11:08:55.888Z,3256.00
2018-01-05T11:10:50.261Z,3392.00
2018-01-05T11:11:50.084Z,3612.00
2018-01-05T11:13:43.362Z,4144.00
2018-01-05T11:14:43.275Z,3716.00
2018-01-05T11:16:36.535Z,3556.00
2018-01-05T11:17:36.466Z,3448.00
2018-01-05T11:19:29.856Z,2964.00
2018-01-05T11:20:29.653Z,2856.00
2018-01-05T11:22:22.913Z,2872.00
2018-01-05T11:23:22.844Z,2784.00
2018-01-05T11:25:16.123Z,2860.00
2018-01-05T11:26:16.041Z,2844.00
2018-01-05T11:28:09.318Z,2560.00
2018-01-05T11:29:09.285Z,2368.00
2018-01-05T11:31:02.602Z,2568.00
2018-01-05T11:32:02.428Z,2608.00
2018-01-05T11:33:55.815Z,2608.00
2018-01-05T11:34:55.622Z,2584.00
2018-01-05T11:36:48.884Z,2260.00
2018-01-05T11:37:48.817Z,2428.00
2018-01-05T11:39:42.096Z,2472.00
2018-01-05T11:40:42.021Z,2508.00
2018-01-05T11:42:35.394Z,2380.00
2018-01-05T11:43:35.204Z,2284.00
2018-01-05T11:45:28.492Z,2400.00
2018-01-05T11:46:28.396Z,2468.00
2018-01-05T11:48:21.676Z,2620.00
2018-01-05T11:49:21.593Z,2832.00
2018-01-05T11:51:14.854Z,3068.00
2018-01-05T11:52:14.786Z,2984.00
2018-01-05T11:54:08.069Z,2872.00
2018-01-05T11:55:07.981Z,2848.00
2018-01-05T11:57:01.241Z,3008.00
2018-01-05T11:58:01.173Z,2824.00
2018-01-05T11:59:54.447Z,2320.00
2018-01-05T12:00:54.357Z,2128.00
2018-01-05T12:02:47.728Z,1876.00
2018-01-05T12:03:47.554Z,1772.00
2018-01-05T12:05:40.837Z,1304.00
2018-01-05T12:06:40.747Z,1060.00
2018-01-05T12:08:34.032Z,1036.00
2018-01-05T12:09:33.946Z,1052.00
2018-01-05T12:11:27.202Z,1108.00
2018-01-05T12:12:27.134Z,1160.00
2018-01-05T12:14:20.413Z,1356.00
2018-01-05T12:15:20.329Z,1320.00
2018-01-05T12:17:13.590Z,1712.00
2018-01-05T12:18:13.523Z,1672.00
2018-01-05T12:20:06.793Z,1444.00
2018-01-05T12:21:06.704Z,1224.00
2018-01-05T12:22:59.977Z,1116.00
2018-01-05T12:23:59.910Z,1024.00
2018-01-05T12:25:53.190Z,1436.00
2018-01-05T12:26:53.104Z,1692.00
2018-01-05T12:28:46.399Z,2020.00
2018-01-05T12:29:46.318Z,2208.00
2018-01-05T12:31:39.590Z,2476.00
2018-01-05T12:32:39.521Z,2728.00
2018-01-05T12:34:32.801Z,2940.00
2018-01-05T12:35:32.721Z,2780.00
2018-01-05T12:37:25.978Z,2600.00
2018-01-05T12:38:25.911Z,2608.00
2018-01-05T12:40:19.190Z,2072.00
2018-01-05T12:41:19.108Z,1544.00
2018-01-05T12:43:12.385Z,1436.00
2018-01-05T12:44:12.316Z,1592.00
2018-01-05T12:46:05.704Z,1484.00
2018-01-05T12:47:05.500Z,1716.00
2018-01-05T12:48:58.768Z,1692.00
2018-01-05T12:49:58.676Z,1856.00
2018-01-05T12:51:51.945Z,1968.00
2018-01-05T12:52:51.878Z,1960.00
2018-01-05T12:54:45.155Z,2124.00
2018-01-05T12:55:45.069Z,1932.00
2018-01-05T12:57:38.451Z,1908.00
2018-01-05T12:58:38.316Z,1928.00
2018-01-05T13:00:31.596Z,2088.00
2018-01-05T13:01:31.514Z,2220.00
2018-01-05T13:03:24.773Z,2304.00
2018-01-05T13:04:24.704Z,2212.00
2018-01-05T13:06:17.986Z,1948.00
2018-01-05T13:07:17.900Z,1880.00
2018-01-05T13:09:11.288Z,1960.00
2018-01-05T13:10:11.094Z,2088.00
2018-01-05T13:12:04.466Z,1976.00
2018-01-05T13:13:04.315Z,1932.00
2018-01-05T13:14:57.597Z,2048.00
2018-01-05T13:15:57.511Z,2228.00
2018-01-05T13:17:50.772Z,2384.00
2018-01-05T13:18:50.705Z,2372.00
2018-01-05T13:20:43.983Z,2252.00
2018-01-05T13:21:43.899Z,2220.00
2018-01-05T13:23:37.272Z,2128.00
2018-01-05T13:24:37.097Z,2020.00
2018-01-05T13:26:30.423Z,1988.00
2018-01-05T13:27:30.316Z,2016.00
2018-01-05T13:29:23.588Z,2000.00
2018-01-05T13:30:23.501Z,1888.00
2018-01-05T13:32:16.763Z,1688.00
2018-01-05T13:33:16.697Z,1680.00
2018-01-05T13:35:09.979Z,1684.00
2018-01-05T13:36:09.891Z,1652.00
2018-01-05T13:38:03.155Z,1648.00
2018-01-05T13:39:03.088Z,1692.00
2018-01-05T13:40:56.406Z,1528.00
2018-01-05T13:41:56.342Z,1528.00
2018-01-05T13:43:49.579Z,1608.00
2018-01-05T13:44:49.512Z,1572.00
2018-01-05T13:46:42.793Z,1412.00
2018-01-05T13:47:42.710Z,1384.00
2018-01-05T13:49:35.984Z,1392.00
2018-01-05T13:50:35.892Z,1340.00
2018-01-05T13:52:29.266Z,1228.00
2018-01-05T13:53:29.091Z,1216.00
2018-01-05T13:55:22.480Z,1164.00
2018-01-05T13:56:22.285Z,1124.00
2018-01-05T13:58:15.536Z,1184.00
2018-01-05T13:59:15.473Z,1164.00
2018-01-05T14:01:08.749Z,1172.00
2018-01-05T14:02:08.662Z,1112.00
2018-01-05T14:04:01.927Z,1096.00
2018-01-05T14:05:01.858Z,1104.00
2018-01-05T14:06:55.245Z,1072.00
2018-01-05T14:07:55.054Z,1096.00
2018-01-05T14:09:48.408Z,1104.00
2018-01-05T14:10:48.318Z,1076.00
2018-01-05T14:12:41.579Z,1076.00
2018-01-05T14:13:41.512Z,1064.00
2018-01-05T14:15:34.784Z,948.00
2018-01-05T14:16:34.717Z,920.00
2018-01-05T14:18:27.947Z,948.00
2018-01-05T14:19:27.873Z,980.00
2018-01-05T14:21:21.150Z,1076.00
2018-01-05T14:22:21.083Z,1096.00
2018-01-05T14:24:14.430Z,1068.00
2018-01-05T14:25:14.314Z,1016.00
2018-01-05T14:27:07.596Z,992.00
2018-01-05T14:28:07.507Z,988.00
2018-01-05T14:30:00.816Z,956.00
2018-01-05T14:31:00.702Z,908.00
2018-01-05T14:32:53.964Z,812.00
2018-01-05T14:33:53.903Z,804.00
2018-01-05T14:35:47.177Z,856.00
2018-01-05T14:36:47.086Z,836.00
2018-01-05T14:38:40.383Z,764.00
2018-01-05T14:39:40.311Z,728.00
2018-01-05T14:41:33.695Z,712.00
2018-01-05T14:42:33.507Z,684.00
2018-01-05T14:44:26.750Z,640.00
2018-01-05T14:45:26.687Z,616.00
2018-01-05T14:47:20.068Z,544.00
2018-01-05T14:48:19.874Z,552.00
2018-01-05T14:50:13.265Z,580.00
2018-01-05T14:51:13.061Z,568.00
2018-01-05T14:53:06.384Z,544.00
2018-01-05T14:54:06.314Z,528.00
2018-01-05T14:55:59.596Z,504.00
2018-01-05T14:56:59.510Z,492.00
2018-01-05T14:58:52.771Z,444.00
2018-01-05T14:59:52.701Z,424.00
2018-01-05T15:01:45.976Z,400.00
2018-01-05T15:02:45.898Z,376.00
2018-01-05T15:04:39.159Z,320.00
2018-01-05T15:05:39.098Z,308.00
2018-01-05T15:07:32.477Z,284.00
2018-01-05T15:08:32.316Z,272.00
2018-01-05T15:10:25.584Z,248.00
2018-01-05T15:11:25.497Z,240.00
2018-01-05T15:13:18.759Z,228.00
2018-01-05T15:14:18.690Z,220.00
2018-01-05T15:16:11.967Z,212.00
2018-01-05T15:17:11.883Z,200.00
2018-01-05T15:19:05.256Z,180.00
2018-01-05T15:20:05.079Z,164.00
2018-01-05T15:21:58.399Z,144.00
2018-01-05T15:22:58.316Z,144.00
2018-01-05T15:24:51.684Z,136.00
2018-01-05T15:25:51.498Z,128.00
2018-01-05T15:27:44.767Z,108.00
2018-01-05T15:28:44.680Z,96.00
2018-01-05T15:30:37.958Z,84.00
2018-01-05T15:31:37.866Z,80.00
2018-01-05T15:33:31.239Z,68.00
2018-01-05T15:34:31.066Z,64.00
2018-01-05T15:36:24.452Z,56.00
2018-01-05T15:37:24.317Z,52.00
2018-01-05T15:39:17.578Z,44.00
2018-01-05T15:40:17.509Z,40.00
2018-01-05T15:42:10.778Z,32.00
2018-01-05T15:43:10.691Z,32.00
2018-01-05T15:45:03.952Z,24.00
2018-01-05T15:46:03.883Z,20.00
2018-01-05T15:47:57.163Z,20.00
2018-01-05T15:48:57.077Z,16.00
2018-01-05T15:50:50.408Z,12.00
2018-01-05T15:51:50.318Z,8.00
2018-01-05T15:53:43.688Z,8.00
2018-01-05T15:54:43.512Z,8.00
2018-01-05T15:56:36.899Z,8.00
2018-01-05T15:57:36.708Z,4.00
2018-01-05T15:59:30.080Z,4.00
2018-01-05T16:00:29.889Z,4.00
2018-01-05T16:02:23.170Z,4.00
2018-01-05T16:03:23.081Z,0.00
2018-01-05T16:05:16.386Z,0.00
2018-01-05T16:06:16.320Z,4.00
2018-01-05T16:08:09.588Z,4.00
2018-01-05T16:09:09.503Z,4.00
2018-01-05T16:11:02.774Z,4.00
2018-01-05T16:12:02.686Z,4.00
2018-01-05T16:13:55.953Z,4.00
2018-01-05T16:14:55.884Z,0.00
2018-01-05T16:16:50.162Z,4.00
2018-01-05T16:17:50.078Z,4.00
2018-01-05T16:19:43.331Z,0.00
2018-01-05T16:20:43.260Z,0.00
2018-01-05T16:22:36.541Z,0.00
2018-01-05T16:23:36.452Z,0.00
2018-01-05T16:25:29.715Z,0.00
2018-01-05T16:26:29.645Z,0.00
2018-01-05T16:28:22.908Z,0.00
2018-01-05T16:29:22.824Z,4.00
2018-01-05T16:31:16.093Z,0.00
2018-01-05T16:32:16.006Z,0.00
2018-01-05T16:34:09.266Z,4.00
2018-01-05T16:35:09.201Z,0.00
2018-01-05T16:37:02.497Z,0.00
2018-01-05T16:38:02.393Z,0.00
2018-01-05T16:39:55.767Z,0.00
2018-01-05T16:40:55.577Z,0.00
2018-01-05T16:42:49.859Z,4.00
2018-01-05T16:43:49.810Z,0.00
2018-01-05T16:45:43.027Z,4.00
2018-01-05T16:46:42.959Z,0.00
2018-01-05T16:48:37.234Z,4.00
2018-01-05T16:49:37.168Z,0.00
2018-01-05T16:51:30.429Z,0.00
2018-01-05T16:52:30.340Z,0.00
2018-01-05T16:54:23.603Z,0.00
2018-01-05T16:55:23.532Z,0.00
2018-01-05T16:57:16.813Z,0.00
2018-01-05T16:58:16.726Z,4.00
2018-01-05T17:00:09.980Z,0.00
2018-01-05T17:01:09.940Z,0.00
2018-01-05T17:03:03.189Z,0.00
2018-01-05T17:04:03.101Z,0.00
2018-01-05T17:05:56.468Z,4.00
2018-01-05T17:06:56.316Z,0.00
2018-01-05T17:08:49.603Z,4.00
2018-01-05T17:09:49.509Z,4.00
2018-01-05T17:11:42.778Z,4.00
2018-01-05T17:12:42.694Z,4.00
2018-01-05T17:14:36.058Z,4.00
2018-01-05T17:15:35.887Z,4.00
2018-01-05T17:17:29.168Z,4.00
2018-01-05T17:18:29.080Z,4.00
2018-01-05T17:20:22.392Z,0.00
2018-01-05T17:21:22.316Z,0.00
2018-01-05T17:23:15.592Z,0.00
2018-01-05T17:24:15.507Z,4.00
2018-01-05T17:26:08.874Z,4.00
2018-01-05T17:27:08.697Z,4.00
2018-01-05T17:29:02.083Z,0.00
2018-01-05T17:30:01.888Z,0.00
2018-01-05T17:31:55.156Z,0.00
2018-01-05T17:32:55.072Z,0.00
2018-01-05T17:34:48.384Z,0.00
2018-01-05T17:35:48.315Z,0.00
2018-01-05T17:37:41.593Z,0.00
2018-01-05T17:38:41.508Z,0.00
2018-01-05T17:40:34.779Z,0.00
2018-01-05T17:41:34.700Z,0.00
2018-01-05T17:43:28.084Z,0.00
2018-01-05T17:44:27.892Z,0.00
2018-01-05T17:46:21.195Z,0.00
2018-01-05T17:47:21.081Z,0.00
2018-01-05T17:49:14.467Z,0.00
2018-01-05T17:50:14.316Z,0.00
2018-01-05T17:52:07.594Z,0.00
2018-01-05T17:53:07.515Z,0.00
2018-01-05T17:55:00.768Z,0.00
2018-01-05T17:56:00.703Z,0.00
2018-01-05T17:57:53.977Z,0.00
2018-01-05T17:58:53.918Z,0.00
2018-01-05T18:00:47.150Z,0.00
2018-01-05T18:01:47.083Z,0.00
2018-01-05T18:03:40.407Z,0.00
2018-01-05T18:04:40.320Z,0.00
2018-01-05T18:06:33.581Z,0.00
2018-01-05T18:07:33.511Z,0.00
2018-01-05T18:09:26.781Z,0.00
2018-01-05T18:10:26.690Z,0.00
2018-01-05T18:12:20.076Z,0.00
2018-01-05T18:13:19.879Z,0.00
2018-01-05T18:15:13.248Z,0.00
2018-01-05T18:16:13.072Z,0.00
2018-01-05T18:18:06.457Z,0.00
2018-01-05T18:19:06.311Z,0.00
2018-01-05T18:20:59.578Z,0.00
2018-01-05T18:21:59.509Z,0.00
2018-01-05T18:23:52.895Z,0.00
2018-01-05T18:24:52.698Z,0.00
2018-01-05T18:26:45.956Z,0.00
2018-01-05T18:27:45.889Z,0.00
2018-01-05T18:29:39.167Z,0.00